Dalton, Texas
Current Conditions -  °F | °C
As of 2:55 AM on Sunday 26 Oct 2014 (Local Time) from KOSA Reporting Station
Clear Clear  
Wind Chill: 62°   Ceiling: Unl
Heat Index: 62°   Visibility: 2.5mi
Dew Point: 62°   Wind: 0mph
Humidity: 99%   Direction: NA
Pressure: 30.04"   Gusts: NA
Location:  33.2006°N, 94.6977°W
Report Text: KOSA 260755Z AUTO 00000KT 2 1/2SM CLR 17/17 A3004 RMK AO1 T01660165
Loading
Personal Weather Stations






























Interactive Weather Map
Tropical Storm Tracking
New forecast layout! Learn more

10-Day Weather Forecast

Advertisements
Track Severe Weather on mobile